Time,TemperatureF,DewpointF,PressureIn,WindDirection,WindDirectionDegrees,WindSpeedMPH,WindSpeedGustMPH,Humidity,HourlyPrecipIn,Conditions,Clouds,dailyrainin,SoftwareType,DateUTC
2013-03-11 00:00:00,56.3,37.4,30.01,South,184,4.0,4.0,49,0.00,,,0.00,Wunderground v.1.15,2013-03-11 04:00:00,
2013-03-11 00:01:00,56.3,37.4,30.02,South,184,3.0,11.0,49,0.00,,,0.00,Wunderground v.1.15,2013-03-11 04:01:00,
2013-03-11 00:02:00,56.2,38.3,30.01,SSE,152,3.0,11.0,51,0.00,,,0.00,Wunderground v.1.15,2013-03-11 04:02:00,
2013-03-11 00:08:00,55.9,38.0,30.01,SE,132,3.0,11.0,51,0.00,,,0.00,Wunderground v.1.15,2013-03-11 04:08:00,
2013-03-11 00:09:00,55.8,37.4,30.00,SE,135,3.0,11.0,50,0.00,,,0.00,Wunderground v.1.15,2013-03-11 04:09:00,
2013-03-11 00:15:00,55.2,38.4,30.00,ESE,110,3.0,11.0,53,0.00,,,0.00,Wunderground v.1.15,2013-03-11 04:15:00,
2013-03-11 00:20:00,55.0,37.2,30.00,SSE,148,2.0,2.0,51,0.00,,,0.00,Wunderground v.1.15,2013-03-11 04:20:00,
2013-03-11 00:26:00,55.2,38.8,30.00,SSE,159,2.0,11.0,54,0.00,,,0.00,Wunderground v.1.15,2013-03-11 04:26:00,
2013-03-11 00:31:00,54.9,38.6,30.00,SE,140,2.0,11.0,54,0.00,,,0.00,Wunderground v.1.15,2013-03-11 04:31:00,
2013-03-11 00:37:00,54.8,37.0,30.00,SE,140,1.0,11.0,51,0.00,,,0.00,Wunderground v.1.15,2013-03-11 04:37:00,
2013-03-11 00:43:00,54.5,38.2,30.00,SE,130,1.0,11.0,54,0.00,,,0.00,Wunderground v.1.15,2013-03-11 04:43:00,
2013-03-11 00:48:00,54.6,37.3,30.00,SE,141,1.0,11.0,52,0.00,,,0.00,Wunderground v.1.15,2013-03-11 04:48:00,
2013-03-11 00:54:00,54.6,38.3,30.00,SSE,157,1.0,11.0,54,0.00,,,0.00,Wunderground v.1.15,2013-03-11 04:54:00,
2013-03-11 00:59:00,54.4,39.0,30.00,SSE,154,1.0,11.0,56,0.00,,,0.00,Wunderground v.1.15,2013-03-11 04:59:00,
2013-03-11 01:04:00,54.3,38.5,29.99,SSE,154,1.0,7.0,55,0.00,,,0.00,Wunderground v.1.15,2013-03-11 05:04:00,
2013-03-11 01:09:00,53.7,38.8,29.99,SSE,154,0.0,7.0,57,0.00,,,0.00,Wunderground v.1.15,2013-03-11 05:09:00,
2013-03-11 01:15:00,53.0,38.6,29.99,SSE,153,0.0,7.0,58,0.00,,,0.00,Wunderground v.1.15,2013-03-11 05:15:00,
2013-03-11 01:21:00,52.6,39.1,29.99,SSE,154,0.0,7.0,60,0.00,,,0.00,Wunderground v.1.15,2013-03-11 05:21:00,
2013-03-11 01:27:00,51.8,38.3,29.98,SSE,153,0.0,7.0,60,0.00,,,0.00,Wunderground v.1.15,2013-03-11 05:27:00,
2013-03-11 01:32:00,51.4,38.8,29.98,SSW,192,0.0,7.0,62,0.00,,,0.00,Wunderground v.1.15,2013-03-11 05:32:00,
2013-03-11 01:37:00,50.8,38.7,29.98,South,190,0.0,7.0,63,0.00,,,0.00,Wunderground v.1.15,2013-03-11 05:37:00,
2013-03-11 01:42:00,50.3,38.6,29.98,South,190,0.0,7.0,64,0.00,,,0.00,Wunderground v.1.15,2013-03-11 05:42:00,
2013-03-11 01:47:00,50.2,38.9,29.98,South,190,0.0,7.0,65,0.00,,,0.00,Wunderground v.1.15,2013-03-11 05:47:00,
2013-03-11 01:53:00,49.6,38.3,29.98,South,186,0.0,7.0,65,0.00,,,0.00,Wunderground v.1.15,2013-03-11 05:53:00,
2013-03-11 01:59:00,50.0,38.7,29.97,South,171,0.0,7.0,65,0.00,,,0.00,Wunderground v.1.15,2013-03-11 05:59:00,
2013-03-11 02:04:00,49.8,39.3,29.97,SE,138,1.0,3.0,67,0.00,,,0.00,Wunderground v.1.15,2013-03-11 06:04:00,
2013-03-11 02:10:00,49.7,38.8,29.97,SE,146,0.0,3.0,66,0.00,,,0.00,Wunderground v.1.15,2013-03-11 06:10:00,
2013-03-11 02:15:00,49.4,38.9,29.97,SE,145,0.0,3.0,67,0.00,,,0.00,Wunderground v.1.15,2013-03-11 06:15:00,
2013-03-11 02:20:00,49.2,39.1,29.97,SE,146,0.0,3.0,68,0.00,,,0.00,Wunderground v.1.15,2013-03-11 06:20:00,
2013-03-11 02:25:00,49.4,38.5,29.97,SE,145,0.0,3.0,66,0.00,,,0.00,Wunderground v.1.15,2013-03-11 06:25:00,
2013-03-11 02:30:00,49.5,39.0,29.97,SE,145,0.0,3.0,67,0.00,,,0.00,Wunderground v.1.15,2013-03-11 06:30:00,
2013-03-11 02:36:00,50.1,39.6,29.96,SE,125,1.0,3.0,67,0.00,,,0.00,Wunderground v.1.15,2013-03-11 06:36:00,
2013-03-11 02:41:00,50.1,39.6,29.96,SE,131,1.0,3.0,67,0.00,,,0.00,Wunderground v.1.15,2013-03-11 06:41:00,
2013-03-11 02:47:00,50.5,38.8,29.96,SSE,153,1.0,4.0,64,0.00,,,0.00,Wunderground v.1.15,2013-03-11 06:47:00,
2013-03-11 02:53:00,50.3,38.6,29.96,SSE,153,0.0,3.0,64,0.00,,,0.00,Wunderground v.1.15,2013-03-11 06:53:00,
2013-03-11 02:59:00,50.4,39.5,29.96,SE,145,0.0,3.0,66,0.00,,,0.00,Wunderground v.1.15,2013-03-11 06:59:00,
2013-03-11 03:05:00,49.8,38.1,29.96,SE,145,0.0,3.0,64,0.00,,,0.00,Wunderground v.1.15,2013-03-11 07:05:00,
2013-03-11 03:11:00,50.1,37.6,29.95,SE,138,0.0,3.0,62,0.00,,,0.00,Wunderground v.1.15,2013-03-11 07:11:00,
2013-03-11 03:16:00,49.7,38.0,29.95,SE,138,0.0,3.0,64,0.00,,,0.00,Wunderground v.1.15,2013-03-11 07:16:00,
2013-03-11 03:21:00,49.7,38.4,29.94,SE,138,0.0,3.0,65,0.00,,,0.00,Wunderground v.1.15,2013-03-11 07:21:00,
2013-03-11 03:27:00,49.5,38.6,29.94,SE,138,0.0,3.0,66,0.00,,,0.00,Wunderground v.1.15,2013-03-11 07:27:00,
2013-03-11 03:32:00,49.3,38.4,29.93,SE,138,0.0,3.0,66,0.00,,,0.00,Wunderground v.1.15,2013-03-11 07:32:00,
2013-03-11 03:38:00,49.3,38.4,29.94,SE,144,0.0,3.0,66,0.00,,,0.00,Wunderground v.1.15,2013-03-11 07:38:00,
2013-03-11 03:43:00,49.5,38.6,29.94,SE,138,1.0,3.0,66,0.00,,,0.00,Wunderground v.1.15,2013-03-11 07:43:00,
2013-03-11 03:49:00,50.6,37.6,29.94,SSE,163,2.0,7.0,61,0.00,,,0.00,Wunderground v.1.15,2013-03-11 07:49:00,
2013-03-11 03:54:00,51.1,38.9,29.93,South,186,2.0,3.0,63,0.00,,,0.00,Wunderground v.1.15,2013-03-11 07:54:00,
2013-03-11 04:00:00,51.2,38.6,29.93,SSE,163,1.0,1.0,62,0.00,,,0.00,Wunderground v.1.15,2013-03-11 08:00:00,
2013-03-11 04:06:00,51.0,38.4,29.92,SSE,163,1.0,4.0,62,0.00,,,0.00,Wunderground v.1.15,2013-03-11 08:06:00,
2013-03-11 04:12:00,50.6,38.5,29.91,SSE,163,0.0,4.0,63,0.00,,,0.00,Wunderground v.1.15,2013-03-11 08:12:00,
2013-03-11 04:17:00,50.5,39.2,29.91,SSE,147,0.0,4.0,65,0.00,,,0.00,Wunderground v.1.15,2013-03-11 08:17:00,
2013-03-11 04:22:00,49.8,38.5,29.91,SE,145,1.0,4.0,65,0.00,,,0.00,Wunderground v.1.15,2013-03-11 08:22:00,
2013-03-11 04:28:00,49.6,38.7,29.91,SE,145,1.0,4.0,66,0.00,,,0.00,Wunderground v.1.15,2013-03-11 08:28:00,
2013-03-11 04:33:00,49.6,37.1,29.90,SE,145,0.0,4.0,62,0.00,,,0.00,Wunderground v.1.15,2013-03-11 08:33:00,
2013-03-11 04:39:00,49.7,38.0,29.90,South,187,1.0,4.0,64,0.00,,,0.00,Wunderground v.1.15,2013-03-11 08:39:00,
2013-03-11 04:44:00,50.3,38.6,29.91,South,188,1.0,4.0,64,0.00,,,0.00,Wunderground v.1.15,2013-03-11 08:44:00,
2013-03-11 04:50:00,49.9,38.6,29.91,South,188,0.0,4.0,65,0.00,,,0.00,Wunderground v.1.15,2013-03-11 08:50:00,
2013-03-11 04:55:00,49.4,38.1,29.90,South,187,0.0,4.0,65,0.00,,,0.00,Wunderground v.1.15,2013-03-11 08:55:00,
2013-03-11 05:00:00,49.2,38.3,29.90,South,188,0.0,5.0,66,0.00,,,0.00,Wunderground v.1.15,2013-03-11 09:00:00,
2013-03-11 05:06:00,48.9,38.0,29.91,South,188,0.0,5.0,66,0.00,,,0.00,Wunderground v.1.15,2013-03-11 09:06:00,
2013-03-11 05:11:00,48.8,38.7,29.91,South,188,0.0,5.0,68,0.00,,,0.00,Wunderground v.1.15,2013-03-11 09:11:00,
2013-03-11 05:17:00,48.6,38.5,29.91,South,188,0.0,5.0,68,0.00,,,0.00,Wunderground v.1.15,2013-03-11 09:17:00,
2013-03-11 05:23:00,48.3,38.6,29.90,South,188,0.0,5.0,69,0.00,,,0.00,Wunderground v.1.15,2013-03-11 09:23:00,
2013-03-11 05:28:00,48.2,39.2,29.90,South,188,0.0,5.0,71,0.00,,,0.00,Wunderground v.1.15,2013-03-11 09:28:00,
2013-03-11 05:33:00,48.3,38.6,29.90,South,188,0.0,5.0,69,0.00,,,0.00,Wunderground v.1.15,2013-03-11 09:33:00,
2013-03-11 05:38:00,48.2,39.2,29.90,South,188,0.0,5.0,71,0.00,,,0.00,Wunderground v.1.15,2013-03-11 09:38:00,
2013-03-11 05:44:00,47.9,38.2,29.90,South,188,0.0,5.0,69,0.00,,,0.00,Wunderground v.1.15,2013-03-11 09:44:00,
2013-03-11 05:49:00,47.6,37.9,29.91,South,187,0.0,5.0,69,0.00,,,0.00,Wunderground v.1.15,2013-03-11 09:49:00,
2013-03-11 05:55:00,47.3,37.6,29.91,South,188,0.0,5.0,69,0.00,,,0.00,Wunderground v.1.15,2013-03-11 09:55:00,
2013-03-11 06:00:00,47.1,37.4,29.91,South,187,0.0,2.0,69,0.00,,,0.00,Wunderground v.1.15,2013-03-11 10:00:00,
2013-03-11 06:05:00,46.9,37.6,29.91,South,188,0.0,2.0,70,0.00,,,0.00,Wunderground v.1.15,2013-03-11 10:05:00,
2013-03-11 06:11:00,46.5,37.6,29.91,South,188,0.0,2.0,71,0.00,,,0.00,Wunderground v.1.15,2013-03-11 10:11:00,
2013-03-11 06:16:00,46.2,37.3,29.91,South,187,0.0,2.0,71,0.00,,,0.00,Wunderground v.1.15,2013-03-11 10:16:00,
2013-03-11 06:21:00,46.2,37.3,29.91,South,188,0.0,2.0,71,0.00,,,0.00,Wunderground v.1.15,2013-03-11 10:21:00,
2013-03-11 06:27:00,46.0,37.8,29.91,South,188,0.0,2.0,73,0.00,,,0.00,Wunderground v.1.15,2013-03-11 10:27:00,
2013-03-11 06:32:00,45.9,37.4,29.91,South,188,0.0,2.0,72,0.00,,,0.00,Wunderground v.1.15,2013-03-11 10:32:00,
2013-03-11 06:38:00,45.6,37.8,29.91,South,188,0.0,2.0,74,0.00,,,0.00,Wunderground v.1.15,2013-03-11 10:38:00,
2013-03-11 06:43:00,45.6,37.8,29.91,South,188,0.0,2.0,74,0.00,,,0.00,Wunderground v.1.15,2013-03-11 10:43:00,
2013-03-11 06:48:00,45.5,37.7,29.91,South,188,0.0,2.0,74,0.00,,,0.00,Wunderground v.1.15,2013-03-11 10:48:00,
2013-03-11 06:53:00,45.5,37.7,29.92,South,187,0.0,2.0,74,0.00,,,0.00,Wunderground v.1.15,2013-03-11 10:53:00,
2013-03-11 06:59:00,45.5,37.7,29.91,South,187,0.0,2.0,74,0.00,,,0.00,Wunderground v.1.15,2013-03-11 10:59:00,
2013-03-11 07:05:00,45.6,37.1,29.91,South,188,0.0,0.0,72,0.00,,,0.00,Wunderground v.1.15,2013-03-11 11:05:00,
2013-03-11 07:10:00,45.7,37.9,29.91,South,188,0.0,0.0,74,0.00,,,0.00,Wunderground v.1.15,2013-03-11 11:10:00,
2013-03-11 07:15:00,45.7,37.5,29.91,South,188,0.0,0.0,73,0.00,,,0.00,Wunderground v.1.15,2013-03-11 11:15:00,
2013-03-11 07:20:00,45.7,37.9,29.91,South,187,0.0,0.0,74,0.00,,,0.00,Wunderground v.1.15,2013-03-11 11:20:00,
2013-03-11 07:25:00,45.5,38.4,29.91,South,187,0.0,0.0,76,0.00,,,0.00,Wunderground v.1.15,2013-03-11 11:25:00,
2013-03-11 07:31:00,45.4,37.9,29.91,South,187,0.0,0.0,75,0.00,,,0.00,Wunderground v.1.15,2013-03-11 11:31:00,
2013-03-11 07:37:00,45.3,38.2,29.91,South,188,0.0,0.0,76,0.00,,,0.00,Wunderground v.1.15,2013-03-11 11:37:00,
2013-03-11 07:42:00,45.1,38.3,29.92,South,187,0.0,0.0,77,0.00,,,0.00,Wunderground v.1.15,2013-03-11 11:42:00,
2013-03-11 07:48:00,45.2,38.4,29.92,South,188,0.0,0.0,77,0.00,,,0.00,Wunderground v.1.15,2013-03-11 11:48:00,
2013-03-11 07:54:00,45.3,38.2,29.92,South,188,0.0,0.0,76,0.00,,,0.00,Wunderground v.1.15,2013-03-11 11:54:00,
2013-03-11 08:00:00,45.2,38.1,29.92,South,187,0.0,0.0,76,0.00,,,0.00,Wunderground v.1.15,2013-03-11 12:00:00,
2013-03-11 08:06:00,45.6,38.1,29.92,South,187,0.0,0.0,75,0.00,,,0.00,Wunderground v.1.15,2013-03-11 12:06:00,
2013-03-11 08:11:00,45.5,38.4,29.91,South,188,0.0,0.0,76,0.00,,,0.00,Wunderground v.1.15,2013-03-11 12:11:00,
2013-03-11 08:16:00,45.5,38.4,29.92,South,187,0.0,0.0,76,0.00,,,0.00,Wunderground v.1.15,2013-03-11 12:16:00,
2013-03-11 08:22:00,45.3,39.2,29.92,South,187,0.0,0.0,79,0.00,,,0.00,Wunderground v.1.15,2013-03-11 12:22:00,
2013-03-11 08:27:00,45.4,39.3,29.92,South,187,0.0,0.0,79,0.00,,,0.00,Wunderground v.1.15,2013-03-11 12:27:00,
2013-03-11 08:33:00,45.5,38.7,29.93,South,188,0.0,0.0,77,0.00,,,0.00,Wunderground v.1.15,2013-03-11 12:33:00,
2013-03-11 08:39:00,45.8,39.3,29.93,South,188,0.0,0.0,78,0.00,,,0.00,Wunderground v.1.15,2013-03-11 12:39:00,
2013-03-11 08:44:00,45.9,39.4,29.92,South,188,0.0,0.0,78,0.00,,,0.00,Wunderground v.1.15,2013-03-11 12:44:00,
2013-03-11 08:49:00,46.1,39.6,29.92,South,188,0.0,0.0,78,0.00,,,0.00,Wunderground v.1.15,2013-03-11 12:49:00,
2013-03-11 08:55:00,46.4,39.6,29.93,South,187,0.0,0.0,77,0.00,,,0.00,Wunderground v.1.15,2013-03-11 12:55:00,
2013-03-11 09:00:00,46.5,40.7,29.93,South,188,0.0,0.0,80,0.00,,,0.00,Wunderground v.1.15,2013-03-11 13:00:00,
2013-03-11 09:06:00,46.7,40.2,29.93,South,187,0.0,0.0,78,0.00,,,0.00,Wunderground v.1.15,2013-03-11 13:06:00,
2013-03-11 09:11:00,47.0,40.8,29.93,South,188,0.0,0.0,79,0.00,,,0.00,Wunderground v.1.15,2013-03-11 13:11:00,
2013-03-11 09:17:00,47.2,41.7,29.93,South,187,0.0,0.0,81,0.00,,,0.00,Wunderground v.1.15,2013-03-11 13:17:00,
2013-03-11 09:22:00,47.5,41.0,29.93,South,188,0.0,0.0,78,0.00,,,0.00,Wunderground v.1.15,2013-03-11 13:22:00,
2013-03-11 09:27:00,48.2,41.7,29.93,South,187,0.0,0.0,78,0.00,,,0.00,Wunderground v.1.15,2013-03-11 13:27:00,
2013-03-11 09:32:00,48.7,41.8,29.93,South,188,0.0,0.0,77,0.00,,,0.00,Wunderground v.1.15,2013-03-11 13:32:00,
2013-03-11 09:38:00,49.1,42.5,29.93,South,188,0.0,0.0,78,0.00,,,0.00,Wunderground v.1.15,2013-03-11 13:38:00,
2013-03-11 09:44:00,49.2,42.0,29.93,South,187,0.0,0.0,76,0.00,,,0.00,Wunderground v.1.15,2013-03-11 13:44:00,
2013-03-11 09:49:00,49.5,41.9,29.93,South,188,0.0,0.0,75,0.00,,,0.00,Wunderground v.1.15,2013-03-11 13:49:00,
2013-03-11 09:54:00,50.0,42.7,29.93,South,187,0.0,0.0,76,0.00,,,0.00,Wunderground v.1.15,2013-03-11 13:54:00,
2013-03-11 09:59:00,50.1,43.8,29.93,South,188,0.0,0.0,79,0.00,,,0.00,Wunderground v.1.15,2013-03-11 13:59:00,
2013-03-11 10:05:00,50.7,42.0,29.92,South,187,0.0,0.0,72,0.00,,,0.00,Wunderground v.1.15,2013-03-11 14:05:00,
2013-03-11 10:10:00,51.3,41.5,29.93,South,188,0.0,0.0,69,0.00,,,0.00,Wunderground v.1.15,2013-03-11 14:10:00,
2013-03-11 10:15:00,52.2,40.8,29.92,South,187,0.0,0.0,65,0.00,,,0.00,Wunderground v.1.15,2013-03-11 14:15:00,
2013-03-11 10:20:00,52.9,40.6,29.92,South,188,0.0,0.0,63,0.00,,,0.00,Wunderground v.1.15,2013-03-11 14:20:00,
2013-03-11 10:25:00,53.5,41.6,29.92,South,188,0.0,0.0,64,0.00,,,0.00,Wunderground v.1.15,2013-03-11 14:25:00,
2013-03-11 10:31:00,54.3,42.0,29.92,South,188,0.0,0.0,63,0.00,,,0.00,Wunderground v.1.15,2013-03-11 14:31:00,
2013-03-11 10:36:00,54.9,40.4,29.92,South,187,0.0,0.0,58,0.00,,,0.00,Wunderground v.1.15,2013-03-11 14:36:00,
2013-03-11 10:42:00,56.1,40.6,29.92,ESE,113,0.0,1.0,56,0.00,,,0.00,Wunderground v.1.15,2013-03-11 14:42:00,
2013-03-11 10:47:00,56.9,40.9,29.92,ESE,110,1.0,4.0,55,0.00,,,0.00,Wunderground v.1.15,2013-03-11 14:47:00,
2013-03-11 10:52:00,57.6,39.6,29.92,SE,143,2.0,5.0,51,0.00,,,0.00,Wunderground v.1.15,2013-03-11 14:52:00,
2013-03-11 10:58:00,58.1,40.1,29.92,SE,131,3.0,5.0,51,0.00,,,0.00,Wunderground v.1.15,2013-03-11 14:58:00,
2013-03-11 11:03:00,58.7,39.6,29.92,SE,130,3.0,4.0,49,0.00,,,0.00,Wunderground v.1.15,2013-03-11 15:03:00,
2013-03-11 11:10:00,59.1,38.9,29.91,SE,142,3.0,3.0,47,0.00,,,0.00,Wunderground v.1.15,2013-03-11 15:10:00,
2013-03-11 11:15:00,59.6,39.3,29.90,SE,126,4.0,7.0,47,0.00,,,0.00,Wunderground v.1.15,2013-03-11 15:15:00,
2013-03-11 11:21:00,60.1,39.2,29.90,SE,138,5.0,7.0,46,0.00,,,0.00,Wunderground v.1.15,2013-03-11 15:21:00,
2013-03-11 11:27:00,60.6,39.1,29.90,SE,146,5.0,7.0,45,0.00,,,0.00,Wunderground v.1.15,2013-03-11 15:27:00,
2013-03-11 11:32:00,60.9,38.2,29.90,South,183,4.0,6.0,43,0.00,,,0.00,Wunderground v.1.15,2013-03-11 15:32:00,
2013-03-11 11:37:00,61.3,38.0,29.90,South,178,4.0,7.0,42,0.00,,,0.00,Wunderground v.1.15,2013-03-11 15:37:00,
2013-03-11 11:42:00,61.6,38.3,29.90,SE,146,6.0,7.0,42,0.00,,,0.00,Wunderground v.1.15,2013-03-11 15:42:00,
2013-03-11 11:47:00,61.8,37.8,29.89,South,185,7.0,10.0,41,0.00,,,0.00,Wunderground v.1.15,2013-03-11 15:47:00,
2013-03-11 11:52:00,62.0,37.4,29.88,South,170,6.0,12.0,40,0.00,,,0.00,Wunderground v.1.15,2013-03-11 15:52:00,
2013-03-11 11:58:00,62.4,37.7,29.87,ESE,118,5.0,12.0,40,0.00,,,0.00,Wunderground v.1.15,2013-03-11 15:58:00,
2013-03-11 12:03:00,62.7,37.4,29.88,ESE,123,5.0,11.0,39,0.00,,,0.00,Wunderground v.1.15,2013-03-11 16:03:00,
2013-03-11 12:08:00,62.7,37.4,29.88,SSW,195,7.0,11.0,39,0.00,,,0.00,Wunderground v.1.15,2013-03-11 16:08:00,
2013-03-11 12:13:00,62.6,37.3,29.88,SE,140,8.0,11.0,39,0.00,,,0.00,Wunderground v.1.15,2013-03-11 16:13:00,
2013-03-11 12:18:00,62.7,37.4,29.88,SE,134,6.0,11.0,39,0.00,,,0.00,Wunderground v.1.15,2013-03-11 16:18:00,
2013-03-11 12:23:00,62.6,37.9,29.86,ESE,123,6.0,10.0,40,0.00,,,0.00,Wunderground v.1.15,2013-03-11 16:23:00,
2013-03-11 12:29:00,62.7,36.7,29.87,SSE,147,6.0,10.0,38,0.00,,,0.00,Wunderground v.1.15,2013-03-11 16:29:00,
2013-03-11 12:34:00,62.7,36.7,29.86,SE,142,6.0,14.0,38,0.00,,,0.00,Wunderground v.1.15,2013-03-11 16:34:00,
2013-03-11 12:39:00,62.7,37.4,29.85,ESE,121,5.0,14.0,39,0.00,,,0.00,Wunderground v.1.15,2013-03-11 16:39:00,
2013-03-11 12:45:00,62.6,38.6,29.84,SSE,168,4.0,11.0,41,0.00,,,0.00,Wunderground v.1.15,2013-03-11 16:45:00,
2013-03-11 12:51:00,62.8,37.5,29.85,SE,142,4.0,10.0,39,0.00,,,0.00,Wunderground v.1.15,2013-03-11 16:51:00,
2013-03-11 12:57:00,63.0,37.0,29.85,South,173,3.0,10.0,38,0.00,,,0.00,Wunderground v.1.15,2013-03-11 16:57:00,
2013-03-11 13:03:00,62.9,38.2,29.86,SSE,168,4.0,15.0,40,0.00,,,0.00,Wunderground v.1.15,2013-03-11 17:03:00,
2013-03-11 13:08:00,62.9,37.5,29.85,ESE,119,3.0,15.0,39,0.00,,,0.00,Wunderground v.1.15,2013-03-11 17:08:00,
2013-03-11 13:14:00,63.1,37.7,29.84,South,173,4.0,15.0,39,0.00,,,0.00,Wunderground v.1.15,2013-03-11 17:14:00,
2013-03-11 13:19:00,63.3,37.9,29.85,SSE,160,4.0,15.0,39,0.00,,,0.00,Wunderground v.1.15,2013-03-11 17:19:00,
2013-03-11 13:24:00,63.4,37.3,29.84,SE,139,4.0,15.0,38,0.00,,,0.00,Wunderground v.1.15,2013-03-11 17:24:00,
2013-03-11 13:30:00,63.4,38.0,29.86,South,187,6.0,6.0,39,0.00,,,0.00,Wunderground v.1.15,2013-03-11 17:30:00,
2013-03-11 13:36:00,63.4,37.3,29.85,SSW,192,5.0,15.0,38,0.00,,,0.00,Wunderground v.1.15,2013-03-11 17:36:00,
2013-03-11 13:41:00,63.5,38.1,29.84,SE,129,4.0,15.0,39,0.00,,,0.00,Wunderground v.1.15,2013-03-11 17:41:00,
2013-03-11 13:47:00,63.4,38.0,29.83,ESE,117,6.0,15.0,39,0.00,,,0.00,Wunderground v.1.15,2013-03-11 17:47:00,
2013-03-11 13:53:00,63.3,38.6,29.82,SSE,149,6.0,15.0,40,0.00,,,0.00,Wunderground v.1.15,2013-03-11 17:53:00,
2013-03-11 13:59:00,63.3,37.9,29.81,South,182,6.0,15.0,39,0.00,,,0.00,Wunderground v.1.15,2013-03-11 17:59:00,
2013-03-11 14:04:00,63.3,38.6,29.81,SSE,161,7.0,14.0,40,0.00,,,0.00,Wunderground v.1.15,2013-03-11 18:04:00,
2013-03-11 14:09:00,63.2,37.8,29.79,South,180,5.0,14.0,39,0.00,,,0.00,Wunderground v.1.15,2013-03-11 18:09:00,
2013-03-11 14:14:00,63.2,38.5,29.80,South,171,4.0,14.0,40,0.00,,,0.00,Wunderground v.1.15,2013-03-11 18:14:00,
2013-03-11 14:19:00,63.1,38.4,29.81,SSE,165,4.0,14.0,40,0.00,,,0.00,Wunderground v.1.15,2013-03-11 18:19:00,
2013-03-11 14:24:00,63.0,37.6,29.81,SE,146,3.0,14.0,39,0.00,,,0.00,Wunderground v.1.15,2013-03-11 18:24:00,
2013-03-11 14:29:00,63.1,37.7,29.81,SSE,150,5.0,14.0,39,0.00,,,0.00,Wunderground v.1.15,2013-03-11 18:29:00,
2013-03-11 14:35:00,63.1,37.7,29.82,SSW,194,5.0,14.0,39,0.00,,,0.00,Wunderground v.1.15,2013-03-11 18:35:00,
2013-03-11 14:40:00,63.2,37.8,29.82,SSE,155,4.0,14.0,39,0.00,,,0.00,Wunderground v.1.15,2013-03-11 18:40:00,
2013-03-11 14:45:00,63.1,38.4,29.81,SE,132,5.0,14.0,40,0.00,,,0.00,Wunderground v.1.15,2013-03-11 18:45:00,
2013-03-11 14:51:00,63.1,38.4,29.82,East,90,5.0,14.0,40,0.00,,,0.00,Wunderground v.1.15,2013-03-11 18:51:00,
2013-03-11 14:57:00,63.2,37.8,29.81,SE,142,3.0,14.0,39,0.00,,,0.00,Wunderground v.1.15,2013-03-11 18:57:00,
2013-03-11 15:02:00,63.5,38.7,29.81,SSE,156,5.0,14.0,40,0.00,,,0.00,Wunderground v.1.15,2013-03-11 19:02:00,
2013-03-11 15:07:00,63.9,38.4,29.81,SSE,159,6.0,14.0,39,0.00,,,0.00,Wunderground v.1.15,2013-03-11 19:07:00,
2013-03-11 15:12:00,64.1,38.6,29.79,SE,126,6.0,14.0,39,0.00,,,0.00,Wunderground v.1.15,2013-03-11 19:12:00,
2013-03-11 15:17:00,64.2,38.7,29.79,South,184,5.0,14.0,39,0.00,,,0.00,Wunderground v.1.15,2013-03-11 19:17:00,
2013-03-11 15:22:00,64.0,38.5,29.78,South,182,5.0,14.0,39,0.00,,,0.00,Wunderground v.1.15,2013-03-11 19:22:00,
2013-03-11 15:28:00,63.7,38.9,29.79,SSE,161,5.0,14.0,40,0.00,,,0.00,Wunderground v.1.15,2013-03-11 19:28:00,
2013-03-11 15:33:00,63.6,38.8,29.79,South,182,7.0,14.0,40,0.00,,,0.00,Wunderground v.1.15,2013-03-11 19:33:00,
2013-03-11 15:38:00,63.5,38.7,29.78,SE,126,7.0,14.0,40,0.00,,,0.00,Wunderground v.1.15,2013-03-11 19:38:00,
2013-03-11 15:43:00,63.5,39.4,29.77,ESE,123,6.0,14.0,41,0.00,,,0.00,Wunderground v.1.15,2013-03-11 19:43:00,
2013-03-11 15:49:00,63.5,39.4,29.77,SE,136,6.0,14.0,41,0.00,,,0.00,Wunderground v.1.15,2013-03-11 19:49:00,
2013-03-11 15:54:00,63.4,39.3,29.77,SE,132,7.0,14.0,41,0.00,,,0.00,Wunderground v.1.15,2013-03-11 19:54:00,
2013-03-11 15:59:00,63.4,39.9,29.78,SSE,164,7.0,14.0,42,0.00,,,0.00,Wunderground v.1.15,2013-03-11 19:59:00,
2013-03-11 16:05:00,63.4,40.5,29.77,SSE,148,6.0,20.0,43,0.00,,,0.00,Wunderground v.1.15,2013-03-11 20:05:00,
2013-03-11 16:10:00,63.3,42.2,29.76,SSW,195,7.0,20.0,46,0.00,,,0.00,Wunderground v.1.15,2013-03-11 20:10:00,
2013-03-11 16:16:00,63.1,42.5,29.74,SE,146,7.0,20.0,47,0.00,,,0.00,Wunderground v.1.15,2013-03-11 20:16:00,
2013-03-11 16:22:00,62.8,42.8,29.74,SSE,160,7.0,20.0,48,0.00,,,0.00,Wunderground v.1.15,2013-03-11 20:22:00,
2013-03-11 16:27:00,62.6,42.1,29.71,SE,136,6.0,20.0,47,0.00,,,0.00,Wunderground v.1.15,2013-03-11 20:27:00,
2013-03-11 16:32:00,62.6,42.1,29.73,South,176,7.0,20.0,47,0.00,,,0.00,Wunderground v.1.15,2013-03-11 20:32:00,
2013-03-11 16:37:00,62.4,42.4,29.76,SSE,164,7.0,20.0,48,0.00,,,0.00,Wunderground v.1.15,2013-03-11 20:37:00,
2013-03-11 16:42:00,62.4,43.0,29.75,SE,128,6.0,20.0,49,0.00,,,0.00,Wunderground v.1.15,2013-03-11 20:42:00,
2013-03-11 16:47:00,62.3,43.4,29.74,South,188,6.0,20.0,50,0.00,,,0.00,Wunderground v.1.15,2013-03-11 20:47:00,
2013-03-11 16:52:00,62.2,43.3,29.74,SE,128,5.0,20.0,50,0.00,,,0.00,Wunderground v.1.15,2013-03-11 20:52:00,
2013-03-11 16:57:00,62.1,43.2,29.74,SE,129,5.0,20.0,50,0.00,,,0.00,Wunderground v.1.15,2013-03-11 20:57:00,
2013-03-11 17:03:00,62.0,42.6,29.74,SSE,150,7.0,16.0,49,0.00,,,0.00,Wunderground v.1.15,2013-03-11 21:03:00,
2013-03-11 17:08:00,61.9,43.0,29.73,SE,131,9.0,16.0,50,0.00,,,0.00,Wunderground v.1.15,2013-03-11 21:08:00,
2013-03-11 17:14:00,61.7,42.9,29.73,South,190,9.0,16.0,50,0.00,,,0.00,Wunderground v.1.15,2013-03-11 21:14:00,
2013-03-11 17:19:00,61.6,43.3,29.73,SE,128,8.0,16.0,51,0.00,,,0.00,Wunderground v.1.15,2013-03-11 21:19:00,
2013-03-11 17:24:00,61.5,43.2,29.72,ESE,113,8.0,16.0,51,0.00,,,0.00,Wunderground v.1.15,2013-03-11 21:24:00,
2013-03-11 17:29:00,61.3,43.0,29.71,SE,130,10.0,16.0,51,0.00,,,0.00,Wunderground v.1.15,2013-03-11 21:29:00,
2013-03-11 17:35:00,61.1,43.3,29.73,SE,141,10.0,16.0,52,0.00,,,0.00,Wunderground v.1.15,2013-03-11 21:35:00,
2013-03-11 17:40:00,61.0,43.2,29.73,South,169,8.0,16.0,52,0.00,,,0.00,Wunderground v.1.15,2013-03-11 21:40:00,
2013-03-11 17:46:00,60.9,43.6,29.73,South,184,9.0,16.0,53,0.00,,,0.00,Wunderground v.1.15,2013-03-11 21:46:00,
2013-03-11 17:51:00,60.8,43.6,29.73,SSE,152,10.0,16.0,53,0.00,,,0.00,Wunderground v.1.15,2013-03-11 21:51:00,
2013-03-11 17:56:00,60.7,43.5,29.72,SE,138,10.0,16.0,53,0.00,,,0.00,Wunderground v.1.15,2013-03-11 21:56:00,
2013-03-11 18:02:00,60.5,43.8,29.70,SSE,164,8.0,23.0,54,0.00,,,0.00,Wunderground v.1.15,2013-03-11 22:02:00,
2013-03-11 18:08:00,60.4,44.2,29.71,South,169,8.0,23.0,55,0.00,,,0.00,Wunderground v.1.15,2013-03-11 22:08:00,
2013-03-11 18:13:00,60.3,44.5,29.70,SSW,195,9.0,23.0,56,0.00,,,0.00,Wunderground v.1.15,2013-03-11 22:13:00,
2013-03-11 18:19:00,60.0,44.7,29.72,SE,125,8.0,23.0,57,0.00,,,0.00,Wunderground v.1.15,2013-03-11 22:19:00,
2013-03-11 18:24:00,59.8,44.1,29.71,SE,134,7.0,23.0,56,0.00,,,0.00,Wunderground v.1.15,2013-03-11 22:24:00,
2013-03-11 18:29:00,59.7,44.4,29.71,ESE,111,8.0,23.0,57,0.00,,,0.00,Wunderground v.1.15,2013-03-11 22:29:00,
2013-03-11 18:34:00,59.6,44.3,29.72,ESE,119,9.0,23.0,57,0.00,,,0.00,Wunderground v.1.15,2013-03-11 22:34:00,
2013-03-11 18:40:00,59.5,45.2,29.72,SSE,153,8.0,23.0,59,0.00,,,0.00,Wunderground v.1.15,2013-03-11 22:40:00,
2013-03-11 18:45:00,59.1,45.2,29.72,SSE,159,8.0,23.0,60,0.00,,,0.00,Wunderground v.1.15,2013-03-11 22:45:00,
2013-03-11 18:50:00,59.0,46.0,29.73,SE,145,9.0,9.0,62,0.00,,,0.00,Wunderground v.1.15,2013-03-11 22:50:00,
2013-03-11 18:56:00,58.3,47.0,29.73,SSE,167,7.0,23.0,66,0.00,,,0.00,Wunderground v.1.15,2013-03-11 22:56:00,
2013-03-11 19:01:00,57.6,47.1,29.73,SE,132,8.0,19.0,68,0.00,,,0.01,Wunderground v.1.15,2013-03-11 23:01:00,
2013-03-11 19:06:00,57.0,47.3,29.73,SE,141,8.0,19.0,70,0.00,,,0.01,Wunderground v.1.15,2013-03-11 23:06:00,
2013-03-11 19:12:00,56.3,47.4,29.73,SE,143,6.0,19.0,72,0.00,,,0.01,Wunderground v.1.15,2013-03-11 23:12:00,
2013-03-11 19:17:00,55.8,47.6,29.74,SE,134,6.0,19.0,74,0.00,,,0.01,Wunderground v.1.15,2013-03-11 23:17:00,
2013-03-11 19:22:00,55.4,47.6,29.73,SE,141,5.0,19.0,75,0.00,,,0.01,Wunderground v.1.15,2013-03-11 23:22:00,
2013-03-11 19:27:00,55.3,47.9,29.73,SSE,157,4.0,19.0,76,0.00,,,0.01,Wunderground v.1.15,2013-03-11 23:27:00,
2013-03-11 19:33:00,54.9,47.8,29.73,SE,140,4.0,19.0,77,0.00,,,0.01,Wunderground v.1.15,2013-03-11 23:33:00,
2013-03-11 19:39:00,54.7,47.6,29.72,SSE,166,3.0,19.0,77,0.00,,,0.01,Wunderground v.1.15,2013-03-11 23:39:00,
2013-03-11 19:44:00,54.4,47.7,29.72,SE,145,3.0,19.0,78,0.00,,,0.01,Wunderground v.1.15,2013-03-11 23:44:00,
2013-03-11 19:49:00,54.1,47.4,29.72,SSE,149,4.0,19.0,78,0.00,,,0.01,Wunderground v.1.15,2013-03-11 23:49:00,
2013-03-11 19:55:00,53.9,47.5,29.71,ESE,122,4.0,19.0,79,0.00,,,0.01,Wunderground v.1.15,2013-03-11 23:55:00,
2013-03-11 20:00:00,53.7,47.0,29.71,SE,142,3.0,13.0,78,0.00,,,0.01,Wunderground v.1.15,2013-03-12 00:00:00,
2013-03-11 20:06:00,53.6,46.9,29.71,SE,136,3.0,13.0,78,0.00,,,0.01,Wunderground v.1.15,2013-03-12 00:06:00,
2013-03-11 20:12:00,53.6,46.6,29.71,SSE,148,3.0,13.0,77,0.00,,,0.01,Wunderground v.1.15,2013-03-12 00:12:00,
2013-03-11 20:17:00,53.7,46.7,29.72,South,187,4.0,13.0,77,0.00,,,0.01,Wunderground v.1.15,2013-03-12 00:17:00,
2013-03-11 20:23:00,53.7,46.7,29.72,SSE,156,3.0,13.0,77,0.00,,,0.01,Wunderground v.1.15,2013-03-12 00:23:00,
2013-03-11 20:28:00,53.8,46.4,29.73,SSE,159,3.0,13.0,76,0.00,,,0.01,Wunderground v.1.15,2013-03-12 00:28:00,
2013-03-11 20:34:00,53.9,46.5,29.72,SSE,164,4.0,13.0,76,0.00,,,0.01,Wunderground v.1.15,2013-03-12 00:34:00,
2013-03-11 20:40:00,54.4,46.3,29.71,SE,138,4.0,13.0,74,0.00,,,0.01,Wunderground v.1.15,2013-03-12 00:40:00,
2013-03-11 20:45:00,55.0,46.5,29.70,SE,143,5.0,13.0,73,0.00,,,0.01,Wunderground v.1.15,2013-03-12 00:45:00,
2013-03-11 20:51:00,55.3,46.8,29.71,SSE,156,5.0,13.0,73,0.00,,,0.01,Wunderground v.1.15,2013-03-12 00:51:00,
2013-03-11 20:56:00,55.5,46.6,29.72,ESE,115,4.0,13.0,72,0.00,,,0.01,Wunderground v.1.15,2013-03-12 00:56:00,
2013-03-11 21:01:00,55.7,46.8,29.72,ESE,111,4.0,5.0,72,0.00,,,0.01,Wunderground v.1.15,2013-03-12 01:01:00,
2013-03-11 21:07:00,56.1,46.4,29.72,South,169,5.0,9.0,70,0.00,,,0.01,Wunderground v.1.15,2013-03-12 01:07:00,
2013-03-11 21:12:00,56.5,46.8,29.72,SE,136,6.0,9.0,70,0.00,,,0.01,Wunderground v.1.15,2013-03-12 01:12:00,
2013-03-11 21:17:00,56.9,47.6,29.72,SE,136,6.0,9.0,71,0.00,,,0.01,Wunderground v.1.15,2013-03-12 01:17:00,
2013-03-11 21:22:00,57.3,46.8,29.72,SSW,208,6.0,9.0,68,0.00,,,0.01,Wunderground v.1.15,2013-03-12 01:22:00,
2013-03-11 21:28:00,57.8,47.3,29.72,SSE,166,6.0,9.0,68,0.00,,,0.01,Wunderground v.1.15,2013-03-12 01:28:00,
2013-03-11 21:33:00,57.9,47.4,29.72,SE,129,5.0,9.0,68,0.00,,,0.01,Wunderground v.1.15,2013-03-12 01:33:00,
2013-03-11 21:38:00,58.0,47.5,29.72,SE,136,4.0,9.0,68,0.00,,,0.01,Wunderground v.1.15,2013-03-12 01:38:00,
2013-03-11 21:43:00,58.1,47.6,29.72,SE,137,5.0,11.0,68,0.00,,,0.01,Wunderground v.1.15,2013-03-12 01:43:00,
2013-03-11 21:48:00,58.2,48.5,29.73,SSE,152,6.0,11.0,70,0.00,,,0.01,Wunderground v.1.15,2013-03-12 01:48:00,
2013-03-11 21:53:00,58.2,48.8,29.73,SSW,206,8.0,14.0,71,0.00,,,0.01,Wunderground v.1.15,2013-03-12 01:53:00,
2013-03-11 21:58:00,58.0,49.4,29.73,East,89,9.0,14.0,73,0.00,,,0.01,Wunderground v.1.15,2013-03-12 01:58:00,
2013-03-11 22:03:00,57.7,49.5,29.73,East,93,9.0,15.0,74,0.00,,,0.01,Wunderground v.1.15,2013-03-12 02:03:00,
2013-03-11 22:09:00,57.4,49.9,29.74,South,176,7.0,15.0,76,0.00,,,0.02,Wunderground v.1.15,2013-03-12 02:09:00,
2013-03-11 22:15:00,56.9,50.1,29.74,SSE,167,7.0,15.0,78,0.00,,,0.02,Wunderground v.1.15,2013-03-12 02:15:00,
2013-03-11 22:20:00,56.7,50.3,29.75,South,169,5.0,15.0,79,0.00,,,0.02,Wunderground v.1.15,2013-03-12 02:20:00,
2013-03-11 22:25:00,56.3,50.2,29.76,SSW,194,4.0,15.0,80,0.00,,,0.02,Wunderground v.1.15,2013-03-12 02:25:00,
2013-03-11 22:30:00,56.0,50.6,29.75,SSE,163,3.0,15.0,82,0.04,,,0.03,Wunderground v.1.15,2013-03-12 02:30:00,
2013-03-11 22:36:00,55.7,50.9,29.75,SE,130,2.0,15.0,84,0.10,,,0.04,Wunderground v.1.15,2013-03-12 02:36:00,
2013-03-11 22:41:00,55.4,50.6,29.75,SSE,161,2.0,2.0,84,0.06,,,0.04,Wunderground v.1.15,2013-03-12 02:41:00,
2013-03-11 22:46:00,54.9,50.8,29.75,SE,146,2.0,15.0,86,0.04,,,0.04,Wunderground v.1.15,2013-03-12 02:46:00,
2013-03-11 22:51:00,54.5,50.7,29.75,SE,144,4.0,15.0,87,0.00,,,0.04,Wunderground v.1.15,2013-03-12 02:51:00,
2013-03-11 22:56:00,54.2,50.7,29.75,SSE,164,5.0,15.0,88,0.00,,,0.05,Wunderground v.1.15,2013-03-12 02:56:00,
2013-03-11 23:02:00,54.0,50.5,29.75,SE,134,4.0,17.0,88,0.00,,,0.05,Wunderground v.1.15,2013-03-12 03:02:00,
2013-03-11 23:07:00,53.9,50.7,29.74,SE,125,4.0,17.0,89,0.00,,,0.05,Wunderground v.1.15,2013-03-12 03:07:00,
2013-03-11 23:12:00,53.8,50.6,29.75,SSE,161,6.0,17.0,89,0.00,,,0.05,Wunderground v.1.15,2013-03-12 03:12:00,
2013-03-11 23:17:00,53.8,50.9,29.75,SSE,148,5.0,17.0,90,0.00,,,0.05,Wunderground v.1.15,2013-03-12 03:17:00,
2013-03-11 23:23:00,53.7,50.8,29.75,SSE,160,4.0,17.0,90,0.00,,,0.05,Wunderground v.1.15,2013-03-12 03:23:00,
2013-03-11 23:28:00,53.8,50.9,29.75,SSE,148,4.0,17.0,90,0.00,,,0.05,Wunderground v.1.15,2013-03-12 03:28:00,
2013-03-11 23:33:00,53.9,51.0,29.74,South,169,6.0,17.0,90,0.00,,,0.05,Wunderground v.1.15,2013-03-12 03:33:00,
2013-03-11 23:38:00,53.9,51.0,29.74,SE,144,6.0,17.0,90,0.00,,,0.06,Wunderground v.1.15,2013-03-12 03:38:00,
2013-03-11 23:44:00,53.8,51.2,29.75,SE,143,6.0,17.0,91,0.00,,,0.06,Wunderground v.1.15,2013-03-12 03:44:00,
2013-03-11 23:50:00,53.7,51.1,29.75,ESE,121,5.0,17.0,91,0.00,,,0.06,Wunderground v.1.15,2013-03-12 03:50:00,
2013-03-11 23:56:00,53.7,51.1,29.75,ESE,121,4.0,17.0,91,0.04,,,0.07,Wunderground v.1.15,2013-03-12 03:56:00,